createdAt,value
2022-11-29T00:03:08.551Z,1004.469
2022-11-29T00:23:07.230Z,1004.42
2022-11-29T00:43:07.843Z,1004.516
2022-11-29T01:03:08.431Z,1004.479
2022-11-29T01:23:07.162Z,1004.559
2022-11-29T01:43:08.055Z,1004.704
2022-11-29T02:03:08.731Z,1004.689
2022-11-29T02:23:07.513Z,1004.769
2022-11-29T02:43:07.209Z,1004.867
2022-11-29T03:03:08.929Z,1005.033
2022-11-29T03:23:07.563Z,1005.23
2022-11-29T03:43:07.270Z,1005.421
2022-11-29T04:03:08.988Z,1005.458
2022-11-29T04:23:07.636Z,1005.533
2022-11-29T04:43:07.404Z,1005.696
2022-11-29T05:03:08.255Z,1005.892
2022-11-29T05:23:07.294Z,1006.122
2022-11-29T05:43:07.361Z,1006.185
2022-11-29T06:03:08.222Z,1006.366
2022-11-29T06:23:07.914Z,1006.559
2022-11-29T06:43:07.747Z,1006.769
2022-11-29T07:03:08.451Z,1006.961
2022-11-29T07:23:07.202Z,1007.178
2022-11-29T07:43:07.155Z,1007.279
2022-11-29T08:03:08.916Z,1007.475
2022-11-29T08:23:07.713Z,1007.602
2022-11-29T08:43:07.540Z,1007.659
2022-11-29T09:03:08.319Z,1007.825
2022-11-29T09:23:08.137Z,1008.138
2022-11-29T09:43:07.962Z,1008.35
2022-11-29T10:03:08.824Z,1008.409
2022-11-29T10:23:07.612Z,1008.417
2022-11-29T10:43:07.641Z,1008.513
2022-11-29T11:03:08.337Z,1008.474
2022-11-29T11:23:07.164Z,1008.507
2022-11-29T11:43:08.028Z,1008.557
2022-11-29T12:03:09.232Z,1008.606
2022-11-29T12:23:08.084Z,1008.701
2022-11-29T12:43:07.999Z,1008.898
2022-11-29T13:03:09.264Z,1009.03
2022-11-29T13:23:08.145Z,1009.193
2022-11-29T13:43:07.991Z,1009.26
2022-11-29T14:03:09.196Z,1009.327
2022-11-29T14:23:08.051Z,1009.366
2022-11-29T14:43:07.911Z,1009.415
2022-11-29T15:03:08.722Z,1009.568
2022-11-29T15:23:07.393Z,1009.583
2022-11-29T15:43:07.316Z,1009.692
2022-11-29T16:03:08.182Z,1009.803
2022-11-29T16:23:08.126Z,1009.899
2022-11-29T16:43:08.028Z,1010.01
2022-11-29T17:03:09.318Z,1010.057
2022-11-29T17:23:08.245Z,1010.186
2022-11-29T17:43:07.110Z,1010.264
2022-11-29T18:03:09.002Z,1010.328
2022-11-29T18:23:09.117Z,1010.567
2022-11-29T18:43:07.992Z,1010.592
2022-11-29T19:03:08.881Z,1010.629
2022-11-29T19:23:07.805Z,1010.685
2022-11-29T19:43:07.947Z,1010.691
2022-11-29T20:03:09.232Z,1010.851
2022-11-29T20:23:07.142Z,1010.877
2022-11-29T20:43:08.195Z,1010.96
2022-11-29T21:03:09.120Z,1011.035
2022-11-29T21:23:08.060Z,1010.942
2022-11-29T21:43:08.213Z,1011.146
2022-11-29T22:03:09.153Z,1011.188
2022-11-29T22:23:07.865Z,1011.346
2022-11-29T22:43:07.912Z,1011.4
2022-11-29T23:03:08.103Z,1011.478
2022-11-29T23:23:07.741Z,1011.454
2022-11-29T23:43:07.540Z,1011.568
